Terminal Aerodrome Forecast
Issued by NWS

Current Version | Previous Version | Text Only | Print | Product List | Glossary On
Versions: 1 2 3 4 5 6 7 8 9 10 11 12 13 14 15 16 17 18 19 20 21 22 23 24
000
FTUS42 KGSP 011740
TAFHKY
TAF
KHKY 011740Z 0118/0218 20011G17KT P6SM BKN120
     FM012200 18009KT P6SM BKN040
     FM020000 18007KT P6SM -SHRA OVC015
     FM020200 18006KT 3SM -SHRA OVC008
     FM020600 20010G17KT 2SM -SHRA BR OVC003
     FM021200 23012G22KT P6SM OVC030
     FM021400 26015G25KT P6SM BKN070=

USA.gov is the U.S. government's official web portal to all federal, state and local government web resources and services.